sensor_id;sensor_type;location;lat;lon;timestamp;temperature;humidity
8105;DHT22;4095;48.942;9.104;2023-03-13T00:01:51;10.60;97.60
8105;DHT22;4095;48.942;9.104;2023-03-13T00:04:17;10.60;97.60
8105;DHT22;4095;48.942;9.104;2023-03-13T00:06:43;10.60;97.60
8105;DHT22;4095;48.942;9.104;2023-03-13T00:09:11;10.70;97.80
8105;DHT22;4095;48.942;9.104;2023-03-13T00:11:38;10.70;97.70
8105;DHT22;4095;48.942;9.104;2023-03-13T00:14:04;10.70;97.50
8105;DHT22;4095;48.942;9.104;2023-03-13T00:16:31;10.80;97.70
8105;DHT22;4095;48.942;9.104;2023-03-13T00:18:58;10.80;97.50
8105;DHT22;4095;48.942;9.104;2023-03-13T00:21:26;10.80;97.70
8105;DHT22;4095;48.942;9.104;2023-03-13T00:23:52;10.80;97.50
8105;DHT22;4095;48.942;9.104;2023-03-13T00:26:20;10.80;97.70
8105;DHT22;4095;48.942;9.104;2023-03-13T00:28:46;10.90;98.00
8105;DHT22;4095;48.942;9.104;2023-03-13T00:31:20;10.90;97.80
8105;DHT22;4095;48.942;9.104;2023-03-13T00:33:48;11.00;97.80
8105;DHT22;4095;48.942;9.104;2023-03-13T00:36:17;11.00;97.80
8105;DHT22;4095;48.942;9.104;2023-03-13T00:38:43;11.00;97.80
8105;DHT22;4095;48.942;9.104;2023-03-13T00:41:15;10.90;98.00
8105;DHT22;4095;48.942;9.104;2023-03-13T00:43:42;11.00;98.10
8105;DHT22;4095;48.942;9.104;2023-03-13T00:46:08;11.10;98.00
8105;DHT22;4095;48.942;9.104;2023-03-13T00:48:34;11.20;97.90
8105;DHT22;4095;48.942;9.104;2023-03-13T00:51:01;11.20;97.90
8105;DHT22;4095;48.942;9.104;2023-03-13T00:53:27;11.20;98.10
8105;DHT22;4095;48.942;9.104;2023-03-13T00:55:58;11.20;97.90
8105;DHT22;4095;48.942;9.104;2023-03-13T00:58:25;11.30;97.90
8105;DHT22;4095;48.942;9.104;2023-03-13T01:00:51;11.40;97.90
8105;DHT22;4095;48.942;9.104;2023-03-13T01:03:17;11.40;97.70
8105;DHT22;4095;48.942;9.104;2023-03-13T01:05:43;11.40;97.60
8105;DHT22;4095;48.942;9.104;2023-03-13T01:08:08;11.40;97.60
8105;DHT22;4095;48.942;9.104;2023-03-13T01:10:34;11.30;97.60
8105;DHT22;4095;48.942;9.104;2023-03-13T01:13:00;11.40;97.80
8105;DHT22;4095;48.942;9.104;2023-03-13T01:15:25;11.40;97.60
8105;DHT22;4095;48.942;9.104;2023-03-13T01:17:51;11.50;97.60
8105;DHT22;4095;48.942;9.104;2023-03-13T01:20:17;11.50;97.50
8105;DHT22;4095;48.942;9.104;2023-03-13T01:22:42;11.50;97.50
8105;DHT22;4095;48.942;9.104;2023-03-13T01:25:08;11.50;97.50
8105;DHT22;4095;48.942;9.104;2023-03-13T01:27:34;11.50;97.60
8105;DHT22;4095;48.942;9.104;2023-03-13T01:29:59;11.40;97.50
8105;DHT22;4095;48.942;9.104;2023-03-13T01:32:25;11.40;97.60
8105;DHT22;4095;48.942;9.104;2023-03-13T01:34:50;11.40;97.60
8105;DHT22;4095;48.942;9.104;2023-03-13T01:37:16;11.40;97.70
8105;DHT22;4095;48.942;9.104;2023-03-13T01:39:42;11.40;97.80
8105;DHT22;4095;48.942;9.104;2023-03-13T01:42:07;11.40;97.70
8105;DHT22;4095;48.942;9.104;2023-03-13T01:44:53;11.40;97.70
8105;DHT22;4095;48.942;9.104;2023-03-13T01:47:19;11.40;97.90
8105;DHT22;4095;48.942;9.104;2023-03-13T01:49:45;11.40;97.70
8105;DHT22;4095;48.942;9.104;2023-03-13T01:52:23;11.40;97.70
8105;DHT22;4095;48.942;9.104;2023-03-13T01:55:01;11.40;97.70
8105;DHT22;4095;48.942;9.104;2023-03-13T01:57:34;11.50;97.90
8105;DHT22;4095;48.942;9.104;2023-03-13T02:00:14;11.40;97.60
8105;DHT22;4095;48.942;9.104;2023-03-13T02:02:50;11.50;97.60
8105;DHT22;4095;48.942;9.104;2023-03-13T02:05:18;11.50;97.40
8105;DHT22;4095;48.942;9.104;2023-03-13T02:07:48;11.50;97.50
8105;DHT22;4095;48.942;9.104;2023-03-13T02:10:16;11.50;97.40
8105;DHT22;4095;48.942;9.104;2023-03-13T02:12:42;11.50;97.40
8105;DHT22;4095;48.942;9.104;2023-03-13T02:15:10;11.50;97.50
8105;DHT22;4095;48.942;9.104;2023-03-13T02:17:38;11.60;97.50
8105;DHT22;4095;48.942;9.104;2023-03-13T02:20:05;11.60;97.50
8105;DHT22;4095;48.942;9.104;2023-03-13T02:22:34;11.50;97.50
8105;DHT22;4095;48.942;9.104;2023-03-13T02:30:19;11.60;97.60
8105;DHT22;4095;48.942;9.104;2023-03-13T02:32:45;11.60;97.50
8105;DHT22;4095;48.942;9.104;2023-03-13T02:35:13;11.60;97.30
8105;DHT22;4095;48.942;9.104;2023-03-13T02:37:41;11.60;97.20
8105;DHT22;4095;48.942;9.104;2023-03-13T02:40:10;11.60;97.30
8105;DHT22;4095;48.942;9.104;2023-03-13T02:42:42;11.60;97.30
8105;DHT22;4095;48.942;9.104;2023-03-13T02:45:12;11.60;97.20
8105;DHT22;4095;48.942;9.104;2023-03-13T02:47:38;11.60;97.30
8105;DHT22;4095;48.942;9.104;2023-03-13T02:50:04;11.60;97.20
8105;DHT22;4095;48.942;9.104;2023-03-13T02:52:32;11.70;97.10
8105;DHT22;4095;48.942;9.104;2023-03-13T02:55:06;11.70;97.10
8105;DHT22;4095;48.942;9.104;2023-03-13T02:57:34;11.70;97.00
8105;DHT22;4095;48.942;9.104;2023-03-13T03:00:00;11.80;97.20
8105;DHT22;4095;48.942;9.104;2023-03-13T03:02:25;11.80;97.20
8105;DHT22;4095;48.942;9.104;2023-03-13T03:04:51;11.80;97.40
8105;DHT22;4095;48.942;9.104;2023-03-13T03:07:17;11.90;97.30
8105;DHT22;4095;48.942;9.104;2023-03-13T03:09:42;12.00;97.30
8105;DHT22;4095;48.942;9.104;2023-03-13T03:12:08;12.00;97.20
8105;DHT22;4095;48.942;9.104;2023-03-13T03:14:34;12.00;97.20
8105;DHT22;4095;48.942;9.104;2023-03-13T03:17:00;12.10;97.90
8105;DHT22;4095;48.942;9.104;2023-03-13T03:19:25;12.00;97.40
8105;DHT22;4095;48.942;9.104;2023-03-13T03:21:51;12.00;97.70
8105;DHT22;4095;48.942;9.104;2023-03-13T03:24:16;12.00;98.10
8105;DHT22;4095;48.942;9.104;2023-03-13T03:26:42;12.00;98.10
8105;DHT22;4095;48.942;9.104;2023-03-13T03:29:07;12.00;98.70
8105;DHT22;4095;48.942;9.104;2023-03-13T03:31:33;12.00;99.30
8105;DHT22;4095;48.942;9.104;2023-03-13T03:33:59;12.00;99.60
8105;DHT22;4095;48.942;9.104;2023-03-13T03:36:25;11.90;99.80
8105;DHT22;4095;48.942;9.104;2023-03-13T03:38:51;11.90;99.90
8105;DHT22;4095;48.942;9.104;2023-03-13T03:41:17;11.80;99.90
8105;DHT22;4095;48.942;9.104;2023-03-13T03:43:44;11.80;99.90
8105;DHT22;4095;48.942;9.104;2023-03-13T03:46:09;11.70;99.90
8105;DHT22;4095;48.942;9.104;2023-03-13T03:48:36;11.70;99.90
8105;DHT22;4095;48.942;9.104;2023-03-13T03:51:02;11.70;99.90
8105;DHT22;4095;48.942;9.104;2023-03-13T03:53:27;11.70;99.90
8105;DHT22;4095;48.942;9.104;2023-03-13T03:55:53;11.70;99.90
8105;DHT22;4095;48.942;9.104;2023-03-13T03:58:19;11.70;99.90
8105;DHT22;4095;48.942;9.104;2023-03-13T04:00:45;11.80;99.90
8105;DHT22;4095;48.942;9.104;2023-03-13T04:03:12;11.80;99.90
8105;DHT22;4095;48.942;9.104;2023-03-13T04:05:38;11.80;99.90
8105;DHT22;4095;48.942;9.104;2023-03-13T04:08:04;11.80;99.90
8105;DHT22;4095;48.942;9.104;2023-03-13T04:10:29;11.90;99.90
8105;DHT22;4095;48.942;9.104;2023-03-13T04:12:55;12.00;99.90
8105;DHT22;4095;48.942;9.104;2023-03-13T04:15:20;12.00;99.90
8105;DHT22;4095;48.942;9.104;2023-03-13T04:17:46;12.10;99.90
8105;DHT22;4095;48.942;9.104;2023-03-13T04:20:12;12.10;99.90
8105;DHT22;4095;48.942;9.104;2023-03-13T04:22:39;12.20;99.90
8105;DHT22;4095;48.942;9.104;2023-03-13T04:25:05;12.30;99.90
8105;DHT22;4095;48.942;9.104;2023-03-13T04:27:32;12.30;99.90
8105;DHT22;4095;48.942;9.104;2023-03-13T04:29:58;12.40;99.90
8105;DHT22;4095;48.942;9.104;2023-03-13T04:32:23;12.50;99.90
8105;DHT22;4095;48.942;9.104;2023-03-13T04:34:49;12.60;99.90
8105;DHT22;4095;48.942;9.104;2023-03-13T04:37:15;12.70;99.90
8105;DHT22;4095;48.942;9.104;2023-03-13T04:39:41;12.90;99.90
8105;DHT22;4095;48.942;9.104;2023-03-13T04:42:06;12.90;99.90
8105;DHT22;4095;48.942;9.104;2023-03-13T04:44:33;13.00;99.90
8105;DHT22;4095;48.942;9.104;2023-03-13T04:46:58;13.10;99.90
8105;DHT22;4095;48.942;9.104;2023-03-13T04:49:24;13.20;99.90
8105;DHT22;4095;48.942;9.104;2023-03-13T04:51:50;13.30;99.90
8105;DHT22;4095;48.942;9.104;2023-03-13T04:54:15;13.30;99.90
8105;DHT22;4095;48.942;9.104;2023-03-13T04:56:41;13.40;99.90
8105;DHT22;4095;48.942;9.104;2023-03-13T04:59:06;13.40;99.90
8105;DHT22;4095;48.942;9.104;2023-03-13T05:01:32;13.50;99.90
8105;DHT22;4095;48.942;9.104;2023-03-13T05:03:58;13.50;99.90
8105;DHT22;4095;48.942;9.104;2023-03-13T05:06:23;13.50;99.90
8105;DHT22;4095;48.942;9.104;2023-03-13T05:08:49;13.60;99.90
8105;DHT22;4095;48.942;9.104;2023-03-13T05:11:14;13.60;99.90
8105;DHT22;4095;48.942;9.104;2023-03-13T05:13:40;13.60;99.90
8105;DHT22;4095;48.942;9.104;2023-03-13T05:16:06;13.70;99.90
8105;DHT22;4095;48.942;9.104;2023-03-13T05:18:31;13.70;99.90
8105;DHT22;4095;48.942;9.104;2023-03-13T05:20:57;13.70;99.90
8105;DHT22;4095;48.942;9.104;2023-03-13T05:23:23;13.70;99.90
8105;DHT22;4095;48.942;9.104;2023-03-13T05:25:48;13.70;99.90
8105;DHT22;4095;48.942;9.104;2023-03-13T05:28:14;13.80;99.90
8105;DHT22;4095;48.942;9.104;2023-03-13T05:30:39;13.80;99.90
8105;DHT22;4095;48.942;9.104;2023-03-13T05:33:05;13.80;99.90
8105;DHT22;4095;48.942;9.104;2023-03-13T05:35:30;13.80;99.90
8105;DHT22;4095;48.942;9.104;2023-03-13T05:37:56;13.80;99.90
8105;DHT22;4095;48.942;9.104;2023-03-13T05:40:21;13.80;99.90
8105;DHT22;4095;48.942;9.104;2023-03-13T05:42:47;13.80;99.90
8105;DHT22;4095;48.942;9.104;2023-03-13T05:45:13;13.80;99.90
8105;DHT22;4095;48.942;9.104;2023-03-13T05:47:38;13.80;99.90
8105;DHT22;4095;48.942;9.104;2023-03-13T05:50:05;13.80;99.90
8105;DHT22;4095;48.942;9.104;2023-03-13T05:52:32;13.90;99.90
8105;DHT22;4095;48.942;9.104;2023-03-13T05:54:57;13.90;99.90
8105;DHT22;4095;48.942;9.104;2023-03-13T05:57:23;14.00;99.90
8105;DHT22;4095;48.942;9.104;2023-03-13T05:59:49;14.00;99.90
8105;DHT22;4095;48.942;9.104;2023-03-13T06:02:14;13.90;99.90
8105;DHT22;4095;48.942;9.104;2023-03-13T06:04:40;14.00;99.90
8105;DHT22;4095;48.942;9.104;2023-03-13T06:07:05;14.10;99.90
8105;DHT22;4095;48.942;9.104;2023-03-13T06:09:31;14.10;99.90
8105;DHT22;4095;48.942;9.104;2023-03-13T06:11:57;14.20;99.90
8105;DHT22;4095;48.942;9.104;2023-03-13T06:14:22;14.10;99.90
8105;DHT22;4095;48.942;9.104;2023-03-13T06:16:48;14.20;99.90
8105;DHT22;4095;48.942;9.104;2023-03-13T06:19:14;14.20;99.90
8105;DHT22;4095;48.942;9.104;2023-03-13T06:21:39;14.20;99.90
8105;DHT22;4095;48.942;9.104;2023-03-13T06:24:05;14.20;99.90
8105;DHT22;4095;48.942;9.104;2023-03-13T06:26:31;14.20;99.90
8105;DHT22;4095;48.942;9.104;2023-03-13T06:28:56;14.20;99.90
8105;DHT22;4095;48.942;9.104;2023-03-13T06:31:22;14.20;99.90
8105;DHT22;4095;48.942;9.104;2023-03-13T06:33:52;14.30;99.90
8105;DHT22;4095;48.942;9.104;2023-03-13T06:36:17;14.30;99.90
8105;DHT22;4095;48.942;9.104;2023-03-13T06:38:43;14.30;99.90
8105;DHT22;4095;48.942;9.104;2023-03-13T06:41:08;14.30;99.90
8105;DHT22;4095;48.942;9.104;2023-03-13T06:43:34;14.40;99.90
8105;DHT22;4095;48.942;9.104;2023-03-13T06:46:03;14.30;99.90
8105;DHT22;4095;48.942;9.104;2023-03-13T06:48:29;14.40;99.90
8105;DHT22;4095;48.942;9.104;2023-03-13T06:50:55;14.40;99.90
8105;DHT22;4095;48.942;9.104;2023-03-13T06:53:21;14.40;99.90
8105;DHT22;4095;48.942;9.104;2023-03-13T06:55:47;14.40;99.90
8105;DHT22;4095;48.942;9.104;2023-03-13T06:58:13;14.40;99.90
8105;DHT22;4095;48.942;9.104;2023-03-13T07:00:39;14.40;99.90
8105;DHT22;4095;48.942;9.104;2023-03-13T07:03:06;14.50;99.90
8105;DHT22;4095;48.942;9.104;2023-03-13T07:05:32;14.50;99.90
8105;DHT22;4095;48.942;9.104;2023-03-13T07:07:58;14.50;99.90
8105;DHT22;4095;48.942;9.104;2023-03-13T07:10:24;14.50;99.90
8105;DHT22;4095;48.942;9.104;2023-03-13T07:12:49;14.50;99.90
8105;DHT22;4095;48.942;9.104;2023-03-13T07:15:15;14.60;99.90
8105;DHT22;4095;48.942;9.104;2023-03-13T07:17:41;14.60;99.90
8105;DHT22;4095;48.942;9.104;2023-03-13T07:20:06;14.60;99.90
8105;DHT22;4095;48.942;9.104;2023-03-13T07:22:35;14.70;99.90
8105;DHT22;4095;48.942;9.104;2023-03-13T07:25:01;14.70;99.90
8105;DHT22;4095;48.942;9.104;2023-03-13T07:27:26;14.70;99.90
8105;DHT22;4095;48.942;9.104;2023-03-13T07:29:52;14.60;99.90
8105;DHT22;4095;48.942;9.104;2023-03-13T07:32:17;14.60;99.90
8105;DHT22;4095;48.942;9.104;2023-03-13T07:34:43;14.60;99.90
8105;DHT22;4095;48.942;9.104;2023-03-13T07:37:13;14.70;99.90
8105;DHT22;4095;48.942;9.104;2023-03-13T07:39:39;14.70;99.90
8105;DHT22;4095;48.942;9.104;2023-03-13T07:42:05;14.70;99.90
8105;DHT22;4095;48.942;9.104;2023-03-13T07:44:30;14.80;99.90
8105;DHT22;4095;48.942;9.104;2023-03-13T07:46:59;14.80;99.90
8105;DHT22;4095;48.942;9.104;2023-03-13T07:49:25;14.80;99.90
8105;DHT22;4095;48.942;9.104;2023-03-13T07:51:51;14.80;99.90
8105;DHT22;4095;48.942;9.104;2023-03-13T07:54:17;14.80;99.90
8105;DHT22;4095;48.942;9.104;2023-03-13T07:56:42;14.80;99.90
8105;DHT22;4095;48.942;9.104;2023-03-13T07:59:08;14.80;99.90
8105;DHT22;4095;48.942;9.104;2023-03-13T08:01:34;14.80;99.90
8105;DHT22;4095;48.942;9.104;2023-03-13T08:04:00;14.90;99.90
8105;DHT22;4095;48.942;9.104;2023-03-13T08:06:26;14.90;99.90
8105;DHT22;4095;48.942;9.104;2023-03-13T08:08:55;14.90;99.90
8105;DHT22;4095;48.942;9.104;2023-03-13T08:11:23;14.90;99.90
8105;DHT22;4095;48.942;9.104;2023-03-13T08:13:49;15.00;99.90
8105;DHT22;4095;48.942;9.104;2023-03-13T08:16:18;15.00;99.90
8105;DHT22;4095;48.942;9.104;2023-03-13T08:18:46;15.20;99.90
8105;DHT22;4095;48.942;9.104;2023-03-13T08:21:20;15.20;99.90
8105;DHT22;4095;48.942;9.104;2023-03-13T08:23:46;15.30;99.90
8105;DHT22;4095;48.942;9.104;2023-03-13T08:26:18;15.40;99.90
8105;DHT22;4095;48.942;9.104;2023-03-13T08:28:45;15.40;99.90
8105;DHT22;4095;48.942;9.104;2023-03-13T08:31:16;15.50;99.90
8105;DHT22;4095;48.942;9.104;2023-03-13T08:33:43;15.50;99.90
8105;DHT22;4095;48.942;9.104;2023-03-13T08:36:18;15.60;99.90
8105;DHT22;4095;48.942;9.104;2023-03-13T08:38:46;15.70;99.90
8105;DHT22;4095;48.942;9.104;2023-03-13T08:41:17;15.80;99.90
8105;DHT22;4095;48.942;9.104;2023-03-13T08:43:43;15.80;99.60
8105;DHT22;4095;48.942;9.104;2023-03-13T08:46:09;15.90;99.50
8105;DHT22;4095;48.942;9.104;2023-03-13T08:48:35;15.90;99.30
8105;DHT22;4095;48.942;9.104;2023-03-13T08:51:10;16.00;99.30
8105;DHT22;4095;48.942;9.104;2023-03-13T08:53:37;16.10;99.30
8105;DHT22;4095;48.942;9.104;2023-03-13T08:56:03;16.10;98.90
8105;DHT22;4095;48.942;9.104;2023-03-13T08:58:30;16.20;98.90
8105;DHT22;4095;48.942;9.104;2023-03-13T09:01:07;16.20;99.00
8105;DHT22;4095;48.942;9.104;2023-03-13T09:03:33;16.30;98.80
8105;DHT22;4095;48.942;9.104;2023-03-13T09:06:00;16.30;98.80
8105;DHT22;4095;48.942;9.104;2023-03-13T09:08:26;16.30;98.70
8105;DHT22;4095;48.942;9.104;2023-03-13T09:11:03;16.40;98.60
8105;DHT22;4095;48.942;9.104;2023-03-13T09:13:30;16.40;98.60
8105;DHT22;4095;48.942;9.104;2023-03-13T09:15:58;16.50;99.10
8105;DHT22;4095;48.942;9.104;2023-03-13T09:18:24;16.50;98.60
8105;DHT22;4095;48.942;9.104;2023-03-13T09:20:50;16.60;98.70
8105;DHT22;4095;48.942;9.104;2023-03-13T09:23:16;16.70;98.70
8105;DHT22;4095;48.942;9.104;2023-03-13T09:25:42;16.70;97.90
8105;DHT22;4095;48.942;9.104;2023-03-13T09:28:08;16.80;97.60
8105;DHT22;4095;48.942;9.104;2023-03-13T09:30:33;16.90;97.30
8105;DHT22;4095;48.942;9.104;2023-03-13T09:32:59;17.00;97.20
8105;DHT22;4095;48.942;9.104;2023-03-13T09:35:24;17.00;96.70
8105;DHT22;4095;48.942;9.104;2023-03-13T09:37:50;17.10;96.60
8105;DHT22;4095;48.942;9.104;2023-03-13T09:40:21;17.10;96.40
8105;DHT22;4095;48.942;9.104;2023-03-13T09:42:51;17.20;96.00
8105;DHT22;4095;48.942;9.104;2023-03-13T09:45:30;17.30;96.10
8105;DHT22;4095;48.942;9.104;2023-03-13T09:51:06;18.00;95.60
8105;DHT22;4095;48.942;9.104;2023-03-13T09:54:25;18.30;95.20
8105;DHT22;4095;48.942;9.104;2023-03-13T09:56:39;18.50;94.70
8105;DHT22;4095;48.942;9.104;2023-03-13T10:01:59;18.30;94.30
8105;DHT22;4095;48.942;9.104;2023-03-13T10:04:37;18.50;94.80
8105;DHT22;4095;48.942;9.104;2023-03-13T10:07:04;18.50;94.70
8105;DHT22;4095;48.942;9.104;2023-03-13T10:09:32;18.60;94.40
8105;DHT22;4095;48.942;9.104;2023-03-13T10:14:44;19.10;94.00
8105;DHT22;4095;48.942;9.104;2023-03-13T10:20:37;19.70;93.40
8105;DHT22;4095;48.942;9.104;2023-03-13T10:22:45;19.90;93.40
8105;DHT22;4095;48.942;9.104;2023-03-13T10:25:35;20.20;93.20
8105;DHT22;4095;48.942;9.104;2023-03-13T10:28:07;20.50;92.80
8105;DHT22;4095;48.942;9.104;2023-03-13T10:30:35;20.80;92.80
8105;DHT22;4095;48.942;9.104;2023-03-13T10:35:40;21.20;92.50
8105;DHT22;4095;48.942;9.104;2023-03-13T10:38:17;21.60;92.50
8105;DHT22;4095;48.942;9.104;2023-03-13T10:40:42;22.30;91.80
8105;DHT22;4095;48.942;9.104;2023-03-13T10:43:16;22.10;91.60
8105;DHT22;4095;48.942;9.104;2023-03-13T10:45:42;21.90;91.80
8105;DHT22;4095;48.942;9.104;2023-03-13T10:48:18;22.20;91.30
8105;DHT22;4095;48.942;9.104;2023-03-13T10:50:47;22.90;90.70
8105;DHT22;4095;48.942;9.104;2023-03-13T10:53:23;23.60;90.50
8105;DHT22;4095;48.942;9.104;2023-03-13T10:55:54;24.60;89.40
8105;DHT22;4095;48.942;9.104;2023-03-13T10:58:29;24.80;85.80
8105;DHT22;4095;48.942;9.104;2023-03-13T11:01:13;23.80;86.90
8105;DHT22;4095;48.942;9.104;2023-03-13T11:03:43;23.40;90.00
8105;DHT22;4095;48.942;9.104;2023-03-13T11:06:31;24.50;88.60
8105;DHT22;4095;48.942;9.104;2023-03-13T11:11:55;25.70;83.90
8105;DHT22;4095;48.942;9.104;2023-03-13T11:14:23;25.70;85.60
8105;DHT22;4095;48.942;9.104;2023-03-13T11:16:50;25.40;82.70
8105;DHT22;4095;48.942;9.104;2023-03-13T11:25:01;27.10;82.50
8105;DHT22;4095;48.942;9.104;2023-03-13T11:30:44;29.60;76.90
8105;DHT22;4095;48.942;9.104;2023-03-13T11:33:20;30.20;74.00
8105;DHT22;4095;48.942;9.104;2023-03-13T11:36:10;29.00;75.20
8105;DHT22;4095;48.942;9.104;2023-03-13T11:45:05;29.70;74.10
8105;DHT22;4095;48.942;9.104;2023-03-13T11:50:41;30.10;71.10
8105;DHT22;4095;48.942;9.104;2023-03-13T11:53:27;30.10;71.40
8105;DHT22;4095;48.942;9.104;2023-03-13T11:56:10;30.50;70.80
8105;DHT22;4095;48.942;9.104;2023-03-13T11:58:58;30.80;70.70
8105;DHT22;4095;48.942;9.104;2023-03-13T12:01:39;30.70;68.60
8105;DHT22;4095;48.942;9.104;2023-03-13T12:06:45;31.10;69.40
8105;DHT22;4095;48.942;9.104;2023-03-13T12:09:29;31.00;69.70
8105;DHT22;4095;48.942;9.104;2023-03-13T12:12:02;31.20;68.10
8105;DHT22;4095;48.942;9.104;2023-03-13T12:14:32;31.00;67.70
8105;DHT22;4095;48.942;9.104;2023-03-13T12:17:14;30.70;68.60
8105;DHT22;4095;48.942;9.104;2023-03-13T12:19:48;29.90;69.40
8105;DHT22;4095;48.942;9.104;2023-03-13T12:25:29;30.30;70.40
8105;DHT22;4095;48.942;9.104;2023-03-13T12:28:29;30.30;68.80
8105;DHT22;4095;48.942;9.104;2023-03-13T12:36:35;28.60;70.80
8105;DHT22;4095;48.942;9.104;2023-03-13T12:39:22;28.50;70.40
8105;DHT22;4095;48.942;9.104;2023-03-13T12:44:32;28.70;71.70
8105;DHT22;4095;48.942;9.104;2023-03-13T12:47:13;28.80;70.20
8105;DHT22;4095;48.942;9.104;2023-03-13T13:00:52;28.60;70.20
8105;DHT22;4095;48.942;9.104;2023-03-13T13:03:28;28.30;70.80
8105;DHT22;4095;48.942;9.104;2023-03-13T13:06:12;27.90;71.40
8105;DHT22;4095;48.942;9.104;2023-03-13T13:16:56;26.00;74.10
8105;DHT22;4095;48.942;9.104;2023-03-13T13:24:59;24.80;76.10
8105;DHT22;4095;48.942;9.104;2023-03-13T13:29:57;24.20;77.60
8105;DHT22;4095;48.942;9.104;2023-03-13T13:32:40;24.00;77.60
8105;DHT22;4095;48.942;9.104;2023-03-13T13:35:34;23.70;78.90
8105;DHT22;4095;48.942;9.104;2023-03-13T13:41:00;23.50;79.40
8105;DHT22;4095;48.942;9.104;2023-03-13T13:43:31;23.60;81.50
8105;DHT22;4095;48.942;9.104;2023-03-13T13:46:02;23.90;79.80
8105;DHT22;4095;48.942;9.104;2023-03-13T13:48:33;23.90;79.40
8105;DHT22;4095;48.942;9.104;2023-03-13T14:01:45;23.80;80.10
8105;DHT22;4095;48.942;9.104;2023-03-13T14:04:33;23.80;80.70
8105;DHT22;4095;48.942;9.104;2023-03-13T14:07:02;23.70;79.00
8105;DHT22;4095;48.942;9.104;2023-03-13T14:09:49;23.80;79.10
8105;DHT22;4095;48.942;9.104;2023-03-13T14:12:46;24.10;79.90
8105;DHT22;4095;48.942;9.104;2023-03-13T14:15:17;24.60;76.80
8105;DHT22;4095;48.942;9.104;2023-03-13T14:17:49;24.80;77.40
8105;DHT22;4095;48.942;9.104;2023-03-13T14:20:34;24.80;76.90
8105;DHT22;4095;48.942;9.104;2023-03-13T14:23:08;24.50;77.10
8105;DHT22;4095;48.942;9.104;2023-03-13T14:25:44;24.40;78.60
8105;DHT22;4095;48.942;9.104;2023-03-13T14:30:42;23.90;77.20
8105;DHT22;4095;48.942;9.104;2023-03-13T14:33:08;23.90;76.90
8105;DHT22;4095;48.942;9.104;2023-03-13T14:35:34;23.90;78.40
8105;DHT22;4095;48.942;9.104;2023-03-13T14:38:02;24.10;78.40
8105;DHT22;4095;48.942;9.104;2023-03-13T14:40:30;24.10;76.80
8105;DHT22;4095;48.942;9.104;2023-03-13T14:42:59;24.10;78.10
8105;DHT22;4095;48.942;9.104;2023-03-13T14:45:31;23.90;79.10
8105;DHT22;4095;48.942;9.104;2023-03-13T14:50:30;23.70;78.00
8105;DHT22;4095;48.942;9.104;2023-03-13T14:53:01;23.70;77.30
8105;DHT22;4095;48.942;9.104;2023-03-13T14:55:31;23.70;78.50
8105;DHT22;4095;48.942;9.104;2023-03-13T14:58:02;23.70;79.30
8105;DHT22;4095;48.942;9.104;2023-03-13T15:00:37;23.70;78.90
8105;DHT22;4095;48.942;9.104;2023-03-13T15:08:38;24.00;78.90
8105;DHT22;4095;48.942;9.104;2023-03-13T15:13:45;24.10;77.80
8105;DHT22;4095;48.942;9.104;2023-03-13T15:16:15;24.10;78.30
8105;DHT22;4095;48.942;9.104;2023-03-13T15:18:42;24.10;78.40
8105;DHT22;4095;48.942;9.104;2023-03-13T15:23:37;24.10;78.70
8105;DHT22;4095;48.942;9.104;2023-03-13T15:26:03;24.20;78.10
8105;DHT22;4095;48.942;9.104;2023-03-13T15:28:30;24.30;77.80
8105;DHT22;4095;48.942;9.104;2023-03-13T15:30:56;24.20;78.70
8105;DHT22;4095;48.942;9.104;2023-03-13T15:33:23;24.20;78.30
8105;DHT22;4095;48.942;9.104;2023-03-13T15:35:50;24.40;78.90
8105;DHT22;4095;48.942;9.104;2023-03-13T15:38:21;24.40;77.30
8105;DHT22;4095;48.942;9.104;2023-03-13T15:40:47;24.20;77.60
8105;DHT22;4095;48.942;9.104;2023-03-13T15:43:14;23.90;77.60
8105;DHT22;4095;48.942;9.104;2023-03-13T15:45:41;23.60;79.20
8105;DHT22;4095;48.942;9.104;2023-03-13T15:48:14;23.50;79.40
8105;DHT22;4095;48.942;9.104;2023-03-13T15:50:40;23.40;78.10
8105;DHT22;4095;48.942;9.104;2023-03-13T15:53:22;23.40;79.20
8105;DHT22;4095;48.942;9.104;2023-03-13T15:55:50;23.30;79.10
8105;DHT22;4095;48.942;9.104;2023-03-13T15:58:16;23.10;79.40
8105;DHT22;4095;48.942;9.104;2023-03-13T16:00:43;23.20;79.40
8105;DHT22;4095;48.942;9.104;2023-03-13T16:03:17;23.30;79.90
8105;DHT22;4095;48.942;9.104;2023-03-13T16:05:44;23.30;78.80
8105;DHT22;4095;48.942;9.104;2023-03-13T16:08:16;23.30;78.40
8105;DHT22;4095;48.942;9.104;2023-03-13T16:10:42;23.30;80.00
8105;DHT22;4095;48.942;9.104;2023-03-13T16:13:09;23.20;79.10
8105;DHT22;4095;48.942;9.104;2023-03-13T16:15:35;23.10;78.30
8105;DHT22;4095;48.942;9.104;2023-03-13T16:18:02;23.00;78.70
8105;DHT22;4095;48.942;9.104;2023-03-13T16:20:29;23.00;79.10
8105;DHT22;4095;48.942;9.104;2023-03-13T16:22:55;22.90;79.30
8105;DHT22;4095;48.942;9.104;2023-03-13T16:25:23;22.80;79.30
8105;DHT22;4095;48.942;9.104;2023-03-13T16:27:49;22.80;80.20
8105;DHT22;4095;48.942;9.104;2023-03-13T16:30:23;22.60;80.40
8105;DHT22;4095;48.942;9.104;2023-03-13T16:32:49;22.40;80.70
8105;DHT22;4095;48.942;9.104;2023-03-13T16:35:15;22.30;80.70
8105;DHT22;4095;48.942;9.104;2023-03-13T16:37:42;22.20;80.90
8105;DHT22;4095;48.942;9.104;2023-03-13T16:40:31;22.10;81.50
8105;DHT22;4095;48.942;9.104;2023-03-13T16:42:57;22.00;82.20
8105;DHT22;4095;48.942;9.104;2023-03-13T16:45:23;21.90;82.20
8105;DHT22;4095;48.942;9.104;2023-03-13T16:47:49;21.90;82.10
8105;DHT22;4095;48.942;9.104;2023-03-13T16:52:47;21.80;82.40
8105;DHT22;4095;48.942;9.104;2023-03-13T16:55:13;21.70;82.50
8105;DHT22;4095;48.942;9.104;2023-03-13T16:57:39;21.60;82.80
8105;DHT22;4095;48.942;9.104;2023-03-13T17:00:16;21.60;83.40
8105;DHT22;4095;48.942;9.104;2023-03-13T17:02:42;21.50;83.10
8105;DHT22;4095;48.942;9.104;2023-03-13T17:05:09;21.50;83.90
8105;DHT22;4095;48.942;9.104;2023-03-13T17:07:36;21.50;84.10
8105;DHT22;4095;48.942;9.104;2023-03-13T17:10:11;21.40;84.40
8105;DHT22;4095;48.942;9.104;2023-03-13T17:12:39;21.30;84.30
8105;DHT22;4095;48.942;9.104;2023-03-13T17:15:05;21.20;84.30
8105;DHT22;4095;48.942;9.104;2023-03-13T17:17:32;21.20;86.10
8105;DHT22;4095;48.942;9.104;2023-03-13T17:19:57;21.10;87.10
8105;DHT22;4095;48.942;9.104;2023-03-13T17:22:23;21.00;87.50
8105;DHT22;4095;48.942;9.104;2023-03-13T17:24:48;20.90;88.20
8105;DHT22;4095;48.942;9.104;2023-03-13T17:27:16;20.80;87.60
8105;DHT22;4095;48.942;9.104;2023-03-13T17:29:43;20.70;87.10
8105;DHT22;4095;48.942;9.104;2023-03-13T17:32:13;20.70;87.80
8105;DHT22;4095;48.942;9.104;2023-03-13T17:34:39;20.60;87.90
8105;DHT22;4095;48.942;9.104;2023-03-13T17:37:13;20.50;87.80
8105;DHT22;4095;48.942;9.104;2023-03-13T17:39:39;20.50;87.70
8105;DHT22;4095;48.942;9.104;2023-03-13T17:42:05;20.50;87.90
8105;DHT22;4095;48.942;9.104;2023-03-13T17:44:30;20.40;88.20
8105;DHT22;4095;48.942;9.104;2023-03-13T17:46:56;20.40;88.50
8105;DHT22;4095;48.942;9.104;2023-03-13T17:49:21;20.30;88.40
8105;DHT22;4095;48.942;9.104;2023-03-13T17:51:47;20.40;88.50
8105;DHT22;4095;48.942;9.104;2023-03-13T17:54:14;20.30;88.20
8105;DHT22;4095;48.942;9.104;2023-03-13T17:56:40;20.30;89.30
8105;DHT22;4095;48.942;9.104;2023-03-13T17:59:13;20.20;90.00
8105;DHT22;4095;48.942;9.104;2023-03-13T18:01:39;20.20;90.20
8105;DHT22;4095;48.942;9.104;2023-03-13T18:04:04;20.20;90.20
8105;DHT22;4095;48.942;9.104;2023-03-13T18:06:36;20.10;90.40